createdAt,value
2023-01-17T00:02:05.798Z,96839.72
2023-01-17T00:04:51.626Z,96839.34
2023-01-17T00:07:39.043Z,96840.00
2023-01-17T00:10:11.627Z,96849.91
2023-01-17T00:12:39.366Z,96844.31
2023-01-17T00:15:08.518Z,96855.66
2023-01-17T00:17:36.211Z,96866.91
2023-01-17T00:20:27.116Z,96859.66
2023-01-17T00:23:12.551Z,96869.19
2023-01-17T00:25:59.113Z,96871.63
2023-01-17T00:28:27.053Z,96876.31
2023-01-17T00:30:53.689Z,96885.78
2023-01-17T00:33:21.488Z,96885.59
2023-01-17T00:35:48.203Z,96888.00
2023-01-17T00:38:17.096Z,96894.63
2023-01-17T00:40:46.329Z,96895.50
2023-01-17T00:43:33.126Z,96891.28
2023-01-17T00:46:18.475Z,96899.16
2023-01-17T00:49:04.219Z,96908.22
2023-01-17T00:51:50.690Z,96918.03
2023-01-17T00:54:36.064Z,96920.28
2023-01-17T00:57:23.741Z,96917.22
2023-01-17T01:00:09.539Z,96930.09
2023-01-17T01:02:55.261Z,96938.34
2023-01-17T01:05:40.836Z,96933.31
2023-01-17T01:08:35.877Z,96938.69
2023-01-17T01:11:23.780Z,96938.94
2023-01-17T01:14:10.246Z,96952.25
2023-01-17T01:16:55.740Z,96960.91
2023-01-17T01:19:41.151Z,96961.47
2023-01-17T01:22:26.574Z,96959.66
2023-01-17T01:25:12.149Z,96964.88
2023-01-17T01:27:57.568Z,96973.91
2023-01-17T01:30:44.009Z,96973.47
2023-01-17T01:33:20.990Z,96980.75
2023-01-17T01:35:50.719Z,96986.22
2023-01-17T01:38:19.236Z,96987.59
2023-01-17T01:40:48.714Z,96986.63
2023-01-17T01:43:18.460Z,96996.22
2023-01-17T01:45:52.804Z,96992.59
2023-01-17T01:48:36.275Z,96992.84
2023-01-17T01:51:08.369Z,96989.84
2023-01-17T01:53:39.676Z,96992.03
2023-01-17T01:56:11.623Z,96993.84
2023-01-17T01:58:41.379Z,96988.97
2023-01-17T02:01:11.327Z,96990.78
2023-01-17T02:03:41.899Z,96998.44
2023-01-17T02:06:21.800Z,97001.84
2023-01-17T02:08:50.067Z,96997.56
2023-01-17T02:11:18.060Z,96998.81
2023-01-17T02:13:46.066Z,97001.19
2023-01-17T02:16:35.610Z,97003.00
2023-01-17T02:19:22.847Z,97012.34
2023-01-17T02:22:02.499Z,97012.13
2023-01-17T02:25:02.370Z,97008.50
2023-01-17T02:27:45.339Z,97018.38
2023-01-17T02:30:34.208Z,97011.94
2023-01-17T02:33:15.630Z,97016.16
2023-01-17T02:35:52.788Z,97027.25
2023-01-17T02:38:32.349Z,97031.69
2023-01-17T02:41:05.490Z,97027.03
2023-01-17T02:43:34.727Z,97040.53
2023-01-17T02:46:04.545Z,97042.34
2023-01-17T02:48:34.270Z,97047.03
2023-01-17T02:51:21.717Z,97049.19
2023-01-17T02:54:02.440Z,97048.03
2023-01-17T02:56:42.062Z,97059.72
2023-01-17T02:59:21.947Z,97059.31
2023-01-17T03:02:06.291Z,97076.63
2023-01-17T03:04:39.508Z,97078.44
2023-01-17T03:07:12.992Z,97078.06
2023-01-17T03:09:43.805Z,97088.16
2023-01-17T03:12:11.614Z,97099.84
2023-01-17T03:14:39.372Z,97098.44
2023-01-17T03:17:09.040Z,97100.88
2023-01-17T03:19:36.757Z,97098.66
2023-01-17T03:22:04.578Z,97110.94
2023-01-17T03:24:32.342Z,97102.31
2023-01-17T03:27:00.113Z,97116.03
2023-01-17T03:29:27.823Z,97110.41
2023-01-17T03:31:55.564Z,97122.91
2023-01-17T03:34:24.912Z,97115.47
2023-01-17T03:36:52.629Z,97116.91
2023-01-17T03:39:20.408Z,97114.91
2023-01-17T03:41:48.134Z,97126.97
2023-01-17T03:44:15.877Z,97124.59
2023-01-17T03:46:43.629Z,97127.81
2023-01-17T03:49:11.346Z,97139.28
2023-01-17T03:51:40.459Z,97142.94
2023-01-17T03:54:08.408Z,97157.88
2023-01-17T03:56:36.107Z,97164.34
2023-01-17T03:59:04.056Z,97180.25
2023-01-17T04:01:31.936Z,97177.03
2023-01-17T04:03:59.851Z,97184.06
2023-01-17T04:06:28.411Z,97191.53
2023-01-17T04:08:57.507Z,97197.56
2023-01-17T04:11:25.307Z,97209.25
2023-01-17T04:13:54.077Z,97215.47
2023-01-17T04:16:25.736Z,97206.44
2023-01-17T04:18:53.451Z,97216.69
2023-01-17T04:21:21.426Z,97228.16
2023-01-17T04:23:49.141Z,97231.59
2023-01-17T04:26:18.259Z,97232.00
2023-01-17T04:28:46.001Z,97231.03
2023-01-17T04:31:16.718Z,97250.31
2023-01-17T04:33:44.567Z,97263.41
2023-01-17T04:36:12.546Z,97262.59
2023-01-17T04:38:40.352Z,97262.00
2023-01-17T04:41:08.020Z,97284.09
2023-01-17T04:43:37.158Z,97294.75
2023-01-17T04:46:09.892Z,97286.53
2023-01-17T04:48:38.241Z,97292.94
2023-01-17T04:51:06.838Z,97290.34
2023-01-17T04:53:34.582Z,97301.78
2023-01-17T04:56:02.784Z,97293.94
2023-01-17T04:58:30.801Z,97309.00
2023-01-17T05:01:04.187Z,97314.22
2023-01-17T05:03:32.539Z,97317.44
2023-01-17T05:06:00.354Z,97311.41
2023-01-17T05:08:28.373Z,97324.47
2023-01-17T05:10:56.068Z,97334.09
2023-01-17T05:13:23.825Z,97338.91
2023-01-17T05:15:51.968Z,97349.38
2023-01-17T05:18:21.122Z,97367.66
2023-01-17T05:20:48.853Z,97368.88
2023-01-17T05:23:16.803Z,97374.31
2023-01-17T05:25:45.110Z,97375.72
2023-01-17T05:28:13.889Z,97387.56
2023-01-17T05:30:41.875Z,97396.19
2023-01-17T05:33:10.235Z,97398.81
2023-01-17T05:35:39.507Z,97396.41
2023-01-17T05:38:07.267Z,97395.19
2023-01-17T05:40:35.228Z,97406.25
2023-01-17T05:43:04.050Z,97410.06
2023-01-17T05:45:33.232Z,97414.47
2023-01-17T05:48:01.391Z,97409.88
2023-01-17T05:50:31.630Z,97417.09
2023-01-17T05:53:02.877Z,97418.06
2023-01-17T05:55:32.471Z,97416.09
2023-01-17T05:58:02.076Z,97432.19
2023-01-17T06:00:30.301Z,97435.00
2023-01-17T06:03:01.408Z,97439.41
2023-01-17T06:05:29.985Z,97433.56
2023-01-17T06:07:58.402Z,97447.63
2023-01-17T06:10:28.230Z,97442.22
2023-01-17T06:13:04.336Z,97451.44
2023-01-17T06:15:32.317Z,97461.50
2023-01-17T06:18:05.433Z,97462.91
2023-01-17T06:20:34.024Z,97464.09
2023-01-17T06:23:04.137Z,97468.94
2023-01-17T06:25:37.520Z,97475.16
2023-01-17T06:28:05.752Z,97481.38
2023-01-17T06:30:33.536Z,97481.81
2023-01-17T06:33:01.327Z,97482.00
2023-01-17T06:35:29.481Z,97471.78
2023-01-17T06:37:59.776Z,97478.81
2023-01-17T06:40:28.854Z,97481.03
2023-01-17T06:43:02.482Z,97497.28
2023-01-17T06:45:30.713Z,97492.28
2023-01-17T06:47:59.210Z,97492.47
2023-01-17T06:50:27.363Z,97499.88
2023-01-17T06:52:56.262Z,97496.03
2023-01-17T06:55:24.221Z,97498.03
2023-01-17T06:57:51.969Z,97508.66
2023-01-17T07:00:21.982Z,97511.66
2023-01-17T07:02:50.300Z,97515.28
2023-01-17T07:05:18.134Z,97519.28
2023-01-17T07:07:46.334Z,97520.31
2023-01-17T07:10:15.812Z,97527.34
2023-01-17T07:12:43.767Z,97524.72
2023-01-17T07:15:12.534Z,97535.41
2023-01-17T07:17:41.683Z,97541.00
2023-01-17T07:20:10.661Z,97543.41
2023-01-17T07:22:38.445Z,97550.69
2023-01-17T07:25:07.013Z,97554.91
2023-01-17T07:27:34.707Z,97550.53
2023-01-17T07:30:02.527Z,97557.19
2023-01-17T07:32:30.257Z,97554.38
2023-01-17T07:34:59.384Z,97551.19
2023-01-17T07:37:27.131Z,97554.22
2023-01-17T07:39:55.198Z,97560.06
2023-01-17T07:42:24.227Z,97561.66
2023-01-17T07:44:52.393Z,97573.75
2023-01-17T07:47:20.834Z,97583.00
2023-01-17T07:49:48.631Z,97587.44
2023-01-17T07:52:18.356Z,97584.81
2023-01-17T07:54:46.161Z,97596.06
2023-01-17T07:57:13.897Z,97593.66
2023-01-17T07:59:41.670Z,97587.06
2023-01-17T08:02:17.591Z,97593.88
2023-01-17T08:04:45.498Z,97590.47
2023-01-17T08:07:13.961Z,97592.88
2023-01-17T08:09:43.984Z,97600.53
2023-01-17T08:12:11.824Z,97596.91
2023-01-17T08:14:39.543Z,97593.72
2023-01-17T08:17:07.852Z,97593.97
2023-01-17T08:19:35.617Z,97592.75
2023-01-17T08:22:03.391Z,97594.00
2023-01-17T08:24:31.093Z,97608.69
2023-01-17T08:27:00.158Z,97609.69
2023-01-17T08:29:27.923Z,97610.69
2023-01-17T08:31:55.718Z,97613.09
2023-01-17T08:34:23.485Z,97614.09
2023-01-17T08:36:53.851Z,97616.91
2023-01-17T08:39:22.071Z,97611.09
2023-01-17T08:41:49.819Z,97611.34
2023-01-17T08:44:20.102Z,97609.72
2023-01-17T08:46:47.868Z,97612.69
2023-01-17T08:49:15.568Z,97603.50
2023-01-17T08:51:43.316Z,97612.16
2023-01-17T08:54:12.912Z,97607.63
2023-01-17T08:56:41.848Z,97604.59
2023-01-17T08:59:11.676Z,97613.06
2023-01-17T09:01:41.828Z,97615.94
2023-01-17T09:04:09.919Z,97621.41
2023-01-17T09:06:39.215Z,97615.16
2023-01-17T09:09:07.912Z,97610.13
2023-01-17T09:11:35.771Z,97631.41
2023-01-17T09:14:03.553Z,97619.94
2023-01-17T09:16:32.006Z,97620.13
2023-01-17T09:19:01.464Z,97620.53
2023-01-17T09:21:29.199Z,97622.09
2023-01-17T09:23:57.190Z,97626.50
2023-01-17T09:26:27.128Z,97620.44
2023-01-17T09:28:54.877Z,97624.16
2023-01-17T09:31:24.439Z,97625.50
2023-01-17T09:33:53.059Z,97633.31
2023-01-17T09:36:22.901Z,97634.75
2023-01-17T09:38:51.029Z,97636.59
2023-01-17T09:41:23.917Z,97641.44
2023-01-17T09:43:56.376Z,97635.94
2023-01-17T09:46:28.026Z,97644.53
2023-01-17T09:49:04.063Z,97643.31
2023-01-17T09:51:33.897Z,97649.31
2023-01-17T09:54:02.398Z,97660.44
2023-01-17T09:56:33.044Z,97656.34
2023-01-17T09:59:19.516Z,97662.78
2023-01-17T10:01:53.903Z,97663.44
2023-01-17T10:04:38.919Z,97663.63
2023-01-17T10:07:20.640Z,97664.63
2023-01-17T10:10:05.724Z,97666.13
2023-01-17T10:12:40.786Z,97670.00
2023-01-17T10:15:35.072Z,97673.63
2023-01-17T10:18:29.320Z,97679.91
2023-01-17T10:21:05.426Z,97683.13
2023-01-17T10:24:04.654Z,97685.16
2023-01-17T10:26:34.129Z,97687.72
2023-01-17T10:29:05.353Z,97685.97
2023-01-17T10:31:41.513Z,97685.19
2023-01-17T10:34:15.053Z,97687.63
2023-01-17T10:36:48.445Z,97679.78
2023-01-17T10:39:21.263Z,97676.16
2023-01-17T10:41:55.206Z,97679.78
2023-01-17T10:44:30.079Z,97682.81
2023-01-17T10:47:03.074Z,97679.38
2023-01-17T10:49:31.779Z,97684.03
2023-01-17T10:52:16.857Z,97679.97
2023-01-17T10:54:56.485Z,97678.56
2023-01-17T10:57:25.814Z,97679.78
2023-01-17T10:59:54.725Z,97682.38
2023-01-17T11:02:26.161Z,97683.16
2023-01-17T11:04:56.975Z,97679.94
2023-01-17T11:07:26.930Z,97689.97
2023-01-17T11:09:57.520Z,97693.38
2023-01-17T11:12:29.973Z,97689.31
2023-01-17T11:15:02.618Z,97684.25
2023-01-17T11:17:31.873Z,97685.22
2023-01-17T11:20:16.921Z,97684.56
2023-01-17T11:22:49.908Z,97682.09
2023-01-17T11:25:24.188Z,97684.97
2023-01-17T11:28:03.969Z,97682.97
2023-01-17T11:30:31.771Z,97687.00
2023-01-17T11:33:00.764Z,97689.22
2023-01-17T11:35:31.111Z,97684.75
2023-01-17T11:38:06.270Z,97684.72
2023-01-17T11:40:39.412Z,97680.22
2023-01-17T11:43:20.994Z,97675.34
2023-01-17T11:46:02.557Z,97685.38
2023-01-17T11:48:36.052Z,97676.50
2023-01-17T11:51:04.989Z,97684.69
2023-01-17T11:53:37.360Z,97680.22
2023-01-17T11:56:09.346Z,97687.50
2023-01-17T11:58:39.692Z,97684.25
2023-01-17T12:01:27.041Z,97685.50
2023-01-17T12:04:23.025Z,97684.09
2023-01-17T12:07:01.079Z,97690.19
2023-01-17T12:09:40.939Z,97679.69
2023-01-17T12:12:37.342Z,97680.09
2023-01-17T12:15:19.518Z,97680.09
2023-01-17T12:18:09.729Z,97672.72
2023-01-17T12:20:49.052Z,97673.69
2023-01-17T12:23:34.145Z,97678.81
2023-01-17T12:26:19.828Z,97669.81
2023-01-17T12:29:10.407Z,97671.47
2023-01-17T12:31:44.152Z,97663.22
2023-01-17T12:34:22.767Z,97667.81
2023-01-17T12:36:54.191Z,97672.41
2023-01-17T12:39:28.215Z,97675.59
2023-01-17T12:42:01.926Z,97677.97
2023-01-17T12:44:45.814Z,97674.09
2023-01-17T12:47:16.220Z,97675.69
2023-01-17T12:49:48.512Z,97673.03
2023-01-17T12:52:24.889Z,97674.00
2023-01-17T12:54:57.054Z,97669.56
2023-01-17T12:57:30.376Z,97688.06
2023-01-17T13:00:05.603Z,97682.03
2023-01-17T13:02:38.566Z,97689.66
2023-01-17T13:05:15.311Z,97689.22
2023-01-17T13:07:48.962Z,97684.38
2023-01-17T13:10:31.055Z,97684.19
2023-01-17T13:13:04.010Z,97681.63
2023-01-17T13:15:37.522Z,97688.28
2023-01-17T13:18:11.539Z,97684.16
2023-01-17T13:21:02.801Z,97682.19
2023-01-17T13:23:36.386Z,97686.00
2023-01-17T13:26:07.116Z,97689.44
2023-01-17T13:28:49.065Z,97688.66
2023-01-17T13:31:36.042Z,97691.13
2023-01-17T13:34:25.031Z,97698.97
2023-01-17T13:37:07.477Z,97695.53
2023-01-17T13:40:00.999Z,97692.44
2023-01-17T13:42:37.919Z,97702.88
2023-01-17T13:45:09.363Z,97707.94
2023-01-17T13:47:42.725Z,97700.53
2023-01-17T13:50:48.827Z,97704.75
2023-01-17T13:53:56.711Z,97707.75
2023-01-17T13:56:35.359Z,97705.72
2023-01-17T13:59:28.120Z,97703.06
2023-01-17T14:01:56.349Z,97702.66
2023-01-17T14:05:03.207Z,97706.25
2023-01-17T14:07:34.124Z,97710.88
2023-01-17T14:10:02.276Z,97708.47
2023-01-17T14:12:33.999Z,97710.28
2023-01-17T14:15:02.573Z,97706.84
2023-01-17T14:17:52.957Z,97702.81
2023-01-17T14:21:00.149Z,97703.81
2023-01-17T14:23:52.101Z,97705.41
2023-01-17T14:26:24.388Z,97697.19
2023-01-17T14:28:53.100Z,97696.97
2023-01-17T14:31:22.965Z,97697.38
2023-01-17T14:33:50.913Z,97696.78
2023-01-17T14:36:26.565Z,97687.94
2023-01-17T14:38:55.862Z,97691.56
2023-01-17T14:41:27.316Z,97693.19
2023-01-17T14:43:55.489Z,97688.75
2023-01-17T14:46:27.317Z,97690.16
2023-01-17T14:49:01.757Z,97690.72
2023-01-17T14:51:30.012Z,97689.69
2023-01-17T14:54:00.423Z,97690.47
2023-01-17T14:56:30.235Z,97691.47
2023-01-17T14:59:14.756Z,97688.03
2023-01-17T15:01:43.377Z,97695.69
2023-01-17T15:04:26.150Z,97695.88
2023-01-17T15:06:54.580Z,97696.25
2023-01-17T15:09:26.026Z,97693.09
2023-01-17T15:11:55.044Z,97702.16
2023-01-17T15:14:27.650Z,97704.13
2023-01-17T15:16:56.065Z,97702.69
2023-01-17T15:19:24.105Z,97709.88
2023-01-17T15:21:54.606Z,97710.22
2023-01-17T15:24:27.568Z,97715.16
2023-01-17T15:26:55.494Z,97715.03
2023-01-17T15:29:26.888Z,97721.97
2023-01-17T15:31:58.075Z,97716.00
2023-01-17T15:34:30.811Z,97715.06
2023-01-17T15:37:01.142Z,97719.72
2023-01-17T15:39:32.692Z,97729.41
2023-01-17T15:42:03.374Z,97726.84
2023-01-17T15:44:47.652Z,97729.25
2023-01-17T15:47:31.436Z,97733.50
2023-01-17T15:49:59.905Z,97737.56
2023-01-17T15:52:28.359Z,97729.38
2023-01-17T15:55:12.215Z,97745.09
2023-01-17T15:57:40.474Z,97734.31
2023-01-17T16:00:21.829Z,97741.78
2023-01-17T16:02:55.138Z,97742.84
2023-01-17T16:05:38.619Z,97743.88
2023-01-17T16:08:39.436Z,97748.53
2023-01-17T16:11:11.909Z,97745.38
2023-01-17T16:13:42.166Z,97751.28
2023-01-17T16:16:16.328Z,97748.53
2023-01-17T16:18:44.695Z,97755.25
2023-01-17T16:21:19.652Z,97754.28
2023-01-17T16:23:48.168Z,97760.94
2023-01-17T16:26:17.704Z,97765.78
2023-01-17T16:28:45.733Z,97771.81
2023-01-17T16:31:13.544Z,97766.16
2023-01-17T16:33:42.745Z,97770.88
2023-01-17T16:36:16.314Z,97774.00
2023-01-17T16:38:45.085Z,97776.50
2023-01-17T16:41:13.258Z,97776.19
2023-01-17T16:43:42.808Z,97779.31
2023-01-17T16:46:12.680Z,97786.84
2023-01-17T16:48:40.478Z,97780.50
2023-01-17T16:51:09.104Z,97779.41
2023-01-17T16:53:37.601Z,97789.69
2023-01-17T16:56:11.195Z,97784.34
2023-01-17T16:58:39.032Z,97789.41
2023-01-17T17:01:11.757Z,97793.50
2023-01-17T17:03:39.558Z,97796.59
2023-01-17T17:06:07.856Z,97799.88
2023-01-17T17:08:36.543Z,97799.59
2023-01-17T17:11:13.975Z,97798.78
2023-01-17T17:13:42.967Z,97795.09
2023-01-17T17:16:14.918Z,97794.75
2023-01-17T17:18:45.374Z,97790.06
2023-01-17T17:21:13.880Z,97787.16
2023-01-17T17:23:41.750Z,97789.28
2023-01-17T17:26:09.742Z,97793.34
2023-01-17T17:28:37.534Z,97795.44
2023-01-17T17:31:07.395Z,97797.75
2023-01-17T17:33:36.884Z,97790.47
2023-01-17T17:36:10.433Z,97798.72
2023-01-17T17:38:48.275Z,97806.22
2023-01-17T17:41:16.017Z,97801.66
2023-01-17T17:43:43.710Z,97800.69
2023-01-17T17:46:11.614Z,97803.63
2023-01-17T17:48:40.710Z,97803.78
2023-01-17T17:51:08.459Z,97801.53
2023-01-17T17:53:36.261Z,97813.03
2023-01-17T17:56:06.337Z,97815.97
2023-01-17T17:58:36.181Z,97819.69
2023-01-17T18:01:05.836Z,97826.97
2023-01-17T18:03:33.818Z,97819.53
2023-01-17T18:06:05.170Z,97814.78
2023-01-17T18:08:33.725Z,97821.00
2023-01-17T18:11:02.811Z,97822.28
2023-01-17T18:13:31.671Z,97827.78
2023-01-17T18:16:05.591Z,97829.72
2023-01-17T18:18:33.849Z,97826.47
2023-01-17T18:21:12.257Z,97831.16
2023-01-17T18:23:42.049Z,97841.72
2023-01-17T18:26:16.812Z,97841.06
2023-01-17T18:28:44.838Z,97835.06
2023-01-17T18:31:13.158Z,97842.03
2023-01-17T18:33:41.366Z,97840.41
2023-01-17T18:36:12.313Z,97849.97
2023-01-17T18:38:42.494Z,97855.16
2023-01-17T18:41:12.090Z,97860.34
2023-01-17T18:43:40.214Z,97857.94
2023-01-17T18:46:09.084Z,97855.34
2023-01-17T18:48:37.156Z,97864.91
2023-01-17T18:51:07.554Z,97871.88
2023-01-17T18:53:38.558Z,97869.28
2023-01-17T18:56:08.764Z,97870.09
2023-01-17T18:58:38.830Z,97865.88
2023-01-17T19:01:08.958Z,97872.03
2023-01-17T19:03:37.266Z,97861.66
2023-01-17T19:06:06.849Z,97867.81
2023-01-17T19:08:36.304Z,97867.00
2023-01-17T19:11:04.602Z,97872.19
2023-01-17T19:13:33.930Z,97879.16
2023-01-17T19:16:02.660Z,97880.13
2023-01-17T19:18:30.761Z,97875.91
2023-01-17T19:21:05.438Z,97876.72
2023-01-17T19:23:34.390Z,97879.31
2023-01-17T19:26:04.048Z,97878.47
2023-01-17T19:28:34.123Z,97889.88
2023-01-17T19:31:04.573Z,97887.41
2023-01-17T19:33:32.558Z,97890.97
2023-01-17T19:36:01.042Z,97886.28
2023-01-17T19:38:28.897Z,97891.47
2023-01-17T19:40:56.739Z,97890.78
2023-01-17T19:43:25.925Z,97896.13
2023-01-17T19:45:58.937Z,97903.09
2023-01-17T19:48:27.567Z,97899.84
2023-01-17T19:50:55.637Z,97893.22
2023-01-17T19:53:23.635Z,97901.94
2023-01-17T19:55:51.388Z,97897.88
2023-01-17T19:58:19.625Z,97898.03
2023-01-17T20:00:48.730Z,97899.00
2023-01-17T20:03:16.518Z,97903.22
2023-01-17T20:05:46.030Z,97892.34
2023-01-17T20:08:14.176Z,97903.69
2023-01-17T20:10:41.930Z,97904.81
2023-01-17T20:13:09.639Z,97912.78
2023-01-17T20:15:37.443Z,97907.88
2023-01-17T20:18:06.673Z,97906.25
2023-01-17T20:20:34.685Z,97910.78
2023-01-17T20:23:05.482Z,97912.06
2023-01-17T20:25:33.387Z,97909.63
2023-01-17T20:28:01.307Z,97914.31
2023-01-17T20:30:31.779Z,97915.56
2023-01-17T20:33:00.155Z,97922.69
2023-01-17T20:35:29.661Z,97926.25
2023-01-17T20:37:57.750Z,97929.00
2023-01-17T20:40:25.679Z,97921.53
2023-01-17T20:42:53.361Z,97928.63
2023-01-17T20:45:21.089Z,97929.63
2023-01-17T20:47:49.568Z,97940.13
2023-01-17T20:50:17.421Z,97941.91
2023-01-17T20:52:48.130Z,97946.28
2023-01-17T20:55:15.967Z,97953.25
2023-01-17T20:57:43.701Z,97945.59
2023-01-17T21:00:12.837Z,97952.56
2023-01-17T21:02:40.619Z,97944.94
2023-01-17T21:05:12.676Z,97947.72
2023-01-17T21:07:40.610Z,97951.25
2023-01-17T21:10:10.743Z,97948.97
2023-01-17T21:12:38.490Z,97947.50
2023-01-17T21:15:07.742Z,97949.44
2023-01-17T21:17:39.759Z,97959.13
2023-01-17T21:20:08.105Z,97946.44
2023-01-17T21:22:35.907Z,97955.22
2023-01-17T21:25:03.687Z,97968.16
2023-01-17T21:27:32.858Z,97955.34
2023-01-17T21:30:00.635Z,97952.91
2023-01-17T21:32:32.154Z,97955.00
2023-01-17T21:34:59.912Z,97957.59
2023-01-17T21:37:27.649Z,97959.19
2023-01-17T21:39:56.886Z,97956.59
2023-01-17T21:42:24.735Z,97949.50
2023-01-17T21:44:54.850Z,97955.50
2023-01-17T21:47:22.635Z,97956.31
2023-01-17T21:49:50.348Z,97963.41
2023-01-17T21:52:21.076Z,97966.00
2023-01-17T21:55:06.265Z,97966.81
2023-01-17T21:57:51.636Z,97968.47
2023-01-17T22:00:21.053Z,97968.59
2023-01-17T22:02:49.329Z,97969.56
2023-01-17T22:05:18.519Z,97982.53
2023-01-17T22:08:00.568Z,97983.50
2023-01-17T22:10:28.429Z,97967.97
2023-01-17T22:12:56.120Z,97978.16
2023-01-17T22:15:25.439Z,97982.22
2023-01-17T22:17:53.190Z,97981.41
2023-01-17T22:20:21.351Z,97986.59
2023-01-17T22:22:49.118Z,97990.97
2023-01-17T22:25:16.985Z,97991.91
2023-01-17T22:27:44.745Z,97999.69
2023-01-17T22:30:13.850Z,97988.69
2023-01-17T22:32:42.991Z,97992.25
2023-01-17T22:35:10.826Z,97998.25
2023-01-17T22:37:38.596Z,98000.16
2023-01-17T22:40:08.204Z,98001.78
2023-01-17T22:42:35.957Z,98018.97
2023-01-17T22:45:03.921Z,98015.56
2023-01-17T22:47:33.035Z,98013.94
2023-01-17T22:50:02.133Z,98018.28
2023-01-17T22:52:29.840Z,98017.47
2023-01-17T22:54:57.596Z,98015.84
2023-01-17T22:57:25.407Z,98015.03
2023-01-17T22:59:53.151Z,98022.94
2023-01-17T23:02:20.918Z,98010.81
2023-01-17T23:04:49.002Z,98025.38
2023-01-17T23:07:18.140Z,98022.94
2023-01-17T23:09:45.938Z,98023.91
2023-01-17T23:12:13.656Z,98022.94
2023-01-17T23:15:07.229Z,98016.94
2023-01-17T23:17:52.643Z,98018.72
2023-01-17T23:20:20.605Z,98030.88
2023-01-17T23:22:49.758Z,98033.63
2023-01-17T23:25:17.946Z,98029.38
2023-01-17T23:28:05.113Z,98032.94
2023-01-17T23:30:35.413Z,98033.06
2023-01-17T23:33:05.035Z,98031.44
2023-01-17T23:35:34.277Z,98042.13
2023-01-17T23:38:21.464Z,98035.44
2023-01-17T23:41:09.526Z,98045.13
2023-01-17T23:43:36.932Z,98040.13
2023-01-17T23:46:05.851Z,98027.44
2023-01-17T23:48:33.559Z,98019.53
2023-01-17T23:51:07.853Z,98016.28
2023-01-17T23:53:38.201Z,98023.38
2023-01-17T23:56:08.605Z,98020.13
2023-01-17T23:58:36.349Z,98023.69
